createdAt,value
2018-03-25T00:00:56.208Z,11.40
2018-03-25T00:03:23.774Z,11.77
2018-03-25T00:05:51.368Z,13.20
2018-03-25T00:08:18.890Z,13.23
2018-03-25T00:10:46.456Z,9.30
2018-03-25T00:13:14.134Z,13.60
2018-03-25T00:15:41.726Z,12.43
2018-03-25T00:18:09.370Z,12.23
2018-03-25T00:20:36.960Z,10.77
2018-03-25T00:23:04.696Z,13.70
2018-03-25T00:25:32.465Z,17.20
2018-03-25T00:28:00.810Z,9.83
2018-03-25T00:30:28.390Z,13.20
2018-03-25T00:32:56.052Z,12.07
2018-03-25T00:35:23.616Z,15.63
2018-03-25T00:37:51.184Z,13.93
2018-03-25T00:40:18.756Z,14.80
2018-03-25T00:42:46.337Z,11.50
2018-03-25T00:45:14.784Z,13.57
2018-03-25T00:47:42.350Z,13.47
2018-03-25T00:50:10.686Z,11.83
2018-03-25T00:52:38.431Z,12.13
2018-03-25T00:55:06.091Z,16.63
2018-03-25T00:57:33.814Z,15.37
2018-03-25T01:00:01.392Z,12.53
2018-03-25T01:02:28.945Z,8.73
2018-03-25T01:04:56.630Z,20.70
2018-03-25T01:07:25.036Z,11.67
2018-03-25T01:09:52.585Z,11.17
2018-03-25T01:12:20.357Z,12.80
2018-03-25T01:14:47.890Z,12.97
2018-03-25T01:17:15.623Z,11.27
2018-03-25T01:19:43.234Z,11.57
2018-03-25T01:22:10.849Z,11.83
2018-03-25T01:24:38.446Z,11.10
2018-03-25T01:27:06.811Z,12.57
2018-03-25T01:29:34.372Z,12.43
2018-03-25T01:32:03.475Z,12.23
2018-03-25T01:34:31.821Z,14.83
2018-03-25T01:36:59.409Z,12.10
2018-03-25T01:39:27.045Z,11.70
2018-03-25T01:41:54.627Z,11.73
2018-03-25T01:44:22.199Z,13.03
2018-03-25T01:46:49.783Z,16.17
2018-03-25T01:49:17.451Z,14.07
2018-03-25T01:51:45.205Z,13.87
2018-03-25T01:54:12.791Z,13.07
2018-03-25T01:56:40.355Z,12.83
2018-03-25T01:59:07.932Z,17.10
2018-03-25T02:01:35.501Z,16.67
2018-03-25T02:04:03.153Z,15.37
2018-03-25T02:06:30.738Z,13.57
2018-03-25T02:08:58.305Z,18.87
2018-03-25T02:11:25.896Z,13.87
2018-03-25T02:13:53.589Z,11.80
2018-03-25T02:16:22.031Z,14.13
2018-03-25T02:18:49.693Z,14.03
2018-03-25T02:21:17.248Z,10.93
2018-03-25T02:23:44.913Z,12.27
2018-03-25T02:26:13.243Z,12.67
2018-03-25T02:28:40.806Z,14.57
2018-03-25T02:31:08.555Z,13.50
2018-03-25T02:33:36.135Z,13.50
2018-03-25T02:36:04.499Z,12.63
2018-03-25T02:38:32.043Z,12.10
2018-03-25T02:40:59.587Z,13.10
2018-03-25T02:43:27.243Z,11.97
2018-03-25T02:45:55.584Z,14.70
2018-03-25T02:48:23.905Z,15.37
2018-03-25T02:50:51.631Z,14.97
2018-03-25T02:53:19.207Z,12.70
2018-03-25T02:55:46.827Z,13.17
2018-03-25T02:58:14.569Z,15.27
2018-03-25T03:00:42.887Z,15.37
2018-03-25T03:03:10.463Z,14.77
2018-03-25T03:05:38.043Z,13.77
2018-03-25T03:08:05.584Z,8.97
2018-03-25T03:10:33.997Z,13.93
2018-03-25T03:13:01.542Z,14.03
2018-03-25T03:15:29.189Z,13.07
2018-03-25T03:17:56.751Z,13.43
2018-03-25T03:20:24.340Z,13.23
2018-03-25T03:22:51.904Z,11.57
2018-03-25T03:25:19.509Z,15.00
2018-03-25T03:27:47.291Z,14.70
2018-03-25T03:30:14.892Z,13.30
2018-03-25T03:32:43.270Z,13.07
2018-03-25T03:35:11.596Z,15.13
2018-03-25T03:37:39.177Z,13.03
2018-03-25T03:40:06.753Z,15.87
2018-03-25T03:42:35.087Z,14.83
2018-03-25T03:45:02.691Z,12.50
2018-03-25T03:47:30.272Z,18.17
2018-03-25T03:49:58.793Z,12.50
2018-03-25T03:52:26.445Z,19.43
2018-03-25T03:54:54.011Z,14.20
2018-03-25T03:57:21.607Z,12.17
2018-03-25T03:59:49.188Z,12.57
2018-03-25T04:02:17.753Z,12.47
2018-03-25T04:04:45.317Z,13.93
2018-03-25T04:07:12.937Z,14.37
2018-03-25T04:09:41.274Z,11.00
2018-03-25T04:12:08.841Z,17.30
2018-03-25T04:14:36.550Z,13.50
2018-03-25T04:17:04.897Z,10.47
2018-03-25T04:19:32.571Z,12.23
2018-03-25T04:22:00.165Z,14.90
2018-03-25T04:24:27.784Z,16.27
2018-03-25T04:26:55.357Z,14.13
2018-03-25T04:29:22.924Z,12.10
2018-03-25T04:31:50.560Z,12.97
2018-03-25T04:34:18.208Z,16.20
2018-03-25T04:36:46.665Z,17.83
2018-03-25T04:39:15.020Z,12.57
2018-03-25T04:41:42.615Z,14.53
2018-03-25T04:44:10.190Z,13.30
2018-03-25T04:46:38.556Z,18.67
2018-03-25T04:49:06.884Z,14.03
2018-03-25T04:51:34.474Z,12.90
2018-03-25T04:54:02.092Z,15.57
2018-03-25T04:56:29.914Z,15.10
2018-03-25T04:58:57.576Z,15.93
2018-03-25T05:01:25.230Z,14.80
2018-03-25T05:03:52.816Z,14.40
2018-03-25T05:06:20.400Z,14.53
2018-03-25T05:08:48.064Z,16.80
2018-03-25T05:11:15.680Z,14.77
2018-03-25T05:13:44.740Z,14.13
2018-03-25T05:16:13.098Z,19.60
2018-03-25T05:18:40.718Z,15.53
2018-03-25T05:21:08.300Z,15.67
2018-03-25T05:23:35.880Z,18.23
2018-03-25T05:26:04.663Z,11.93
2018-03-25T05:28:32.362Z,18.50
2018-03-25T05:30:59.989Z,16.93
2018-03-25T05:33:27.588Z,15.63
2018-03-25T05:35:55.387Z,13.43
2018-03-25T05:38:22.958Z,16.50
2018-03-25T05:40:50.535Z,17.73
2018-03-25T05:43:18.121Z,12.03
2018-03-25T05:45:45.807Z,18.27
2018-03-25T05:48:13.500Z,12.90
2018-03-25T05:50:41.150Z,18.87
2018-03-25T05:53:08.769Z,14.73
2018-03-25T05:55:37.295Z,21.87
2018-03-25T05:58:04.908Z,19.53
2018-03-25T06:00:33.264Z,16.10
2018-03-25T06:03:00.858Z,10.97
2018-03-25T06:05:29.212Z,15.70
2018-03-25T06:07:57.547Z,16.07
2018-03-25T06:10:25.155Z,20.27
2018-03-25T06:12:53.518Z,17.23
2018-03-25T06:15:21.238Z,13.97
2018-03-25T06:17:48.858Z,13.73
2018-03-25T06:20:16.536Z,15.30
2018-03-25T06:22:44.897Z,18.70
2018-03-25T06:25:12.798Z,22.57
2018-03-25T06:27:40.389Z,18.33
2018-03-25T06:30:07.965Z,17.33
2018-03-25T06:32:35.567Z,19.83
2018-03-25T06:35:03.915Z,24.07
2018-03-25T06:37:31.487Z,15.37
2018-03-25T06:39:59.119Z,15.43
2018-03-25T06:42:26.801Z,15.60
2018-03-25T06:44:54.439Z,16.10
2018-03-25T06:47:22.019Z,14.67
2018-03-25T06:49:49.667Z,17.30
2018-03-25T06:52:17.343Z,15.20
2018-03-25T06:54:44.957Z,13.40
2018-03-25T06:57:12.628Z,15.37
2018-03-25T06:59:40.181Z,15.37
2018-03-25T07:02:07.792Z,14.07
2018-03-25T07:04:36.283Z,13.80
2018-03-25T07:07:03.841Z,13.77
2018-03-25T07:09:31.472Z,16.50
2018-03-25T07:11:59.139Z,14.20
2018-03-25T07:14:27.071Z,14.93
2018-03-25T07:16:54.671Z,11.57
2018-03-25T07:19:22.978Z,14.67
2018-03-25T07:21:50.695Z,11.57
2018-03-25T07:24:18.263Z,15.73
2018-03-25T07:26:45.837Z,13.37
2018-03-25T07:29:13.421Z,14.33
2018-03-25T07:31:41.861Z,13.93
2018-03-25T07:34:10.531Z,13.27
2018-03-25T07:36:38.285Z,16.13
2018-03-25T07:39:05.914Z,10.80
2018-03-25T07:41:34.253Z,10.73
2018-03-25T07:44:01.886Z,12.10
2018-03-25T07:46:29.469Z,10.30
2018-03-25T07:48:57.110Z,9.77
2018-03-25T07:51:24.680Z,9.40
2018-03-25T07:53:52.256Z,10.80
2018-03-25T07:56:19.820Z,7.33
2018-03-25T07:58:47.501Z,7.63
2018-03-25T08:01:16.347Z,11.47
2018-03-25T08:03:43.982Z,5.30
2018-03-25T08:06:11.539Z,6.87
2018-03-25T08:08:40.104Z,7.40
2018-03-25T08:11:07.688Z,6.00
2018-03-25T08:13:36.368Z,7.27
2018-03-25T08:16:07.707Z,3.80
2018-03-25T08:18:35.319Z,4.97
2018-03-25T08:21:03.038Z,5.40
2018-03-25T08:23:30.607Z,4.87
2018-03-25T08:25:58.196Z,5.63
2018-03-25T08:28:27.284Z,6.70
2018-03-25T08:30:54.916Z,6.07
2018-03-25T08:33:24.452Z,5.97
2018-03-25T08:35:52.512Z,7.23
2018-03-25T08:38:20.134Z,7.87
2018-03-25T08:40:47.786Z,6.33
2018-03-25T08:43:15.510Z,6.60
2018-03-25T08:45:43.112Z,4.80
2018-03-25T08:48:23.074Z,5.20
2018-03-25T08:50:50.618Z,5.50
2018-03-25T08:53:18.292Z,4.90
2018-03-25T08:55:46.063Z,5.03
2018-03-25T08:58:13.711Z,4.27
2018-03-25T09:00:41.370Z,5.33
2018-03-25T09:03:09.099Z,3.80
2018-03-25T09:05:37.436Z,4.60
2018-03-25T09:08:05.063Z,4.70
2018-03-25T09:10:32.669Z,5.07
2018-03-25T09:13:00.302Z,5.00
2018-03-25T09:15:27.915Z,5.83
2018-03-25T09:17:56.287Z,4.20
2018-03-25T09:20:25.488Z,3.87
2018-03-25T09:22:53.999Z,5.20
2018-03-25T09:25:21.682Z,4.53
2018-03-25T09:27:49.290Z,4.93
2018-03-25T09:30:17.733Z,5.77
2018-03-25T09:32:45.296Z,6.73
2018-03-25T09:35:12.891Z,4.37
2018-03-25T09:37:41.321Z,6.00
2018-03-25T09:40:08.931Z,5.37
2018-03-25T09:42:37.589Z,3.93
2018-03-25T09:45:05.430Z,6.17
2018-03-25T09:47:33.762Z,5.23
2018-03-25T09:50:01.392Z,4.63
2018-03-25T09:52:29.031Z,4.57
2018-03-25T09:54:57.361Z,5.27
2018-03-25T09:57:24.968Z,4.33
2018-03-25T09:59:52.606Z,3.30
2018-03-25T10:02:25.982Z,4.13
2018-03-25T10:04:53.603Z,3.93
2018-03-25T10:07:21.217Z,4.00
2018-03-25T10:09:49.739Z,3.33
2018-03-25T10:12:17.313Z,5.13
2018-03-25T10:14:44.873Z,4.90
2018-03-25T10:17:12.541Z,3.80
2018-03-25T10:19:40.136Z,4.20
2018-03-25T10:22:07.781Z,4.30
2018-03-25T10:24:35.375Z,4.17
2018-03-25T10:27:03.109Z,4.00
2018-03-25T10:29:31.493Z,4.80
2018-03-25T10:31:59.914Z,5.87
2018-03-25T10:34:27.501Z,10.83
2018-03-25T10:36:55.070Z,6.47
2018-03-25T10:39:22.645Z,6.57
2018-03-25T10:41:50.213Z,8.97
2018-03-25T10:44:17.797Z,7.03
2018-03-25T10:46:46.129Z,8.70
2018-03-25T10:49:13.671Z,6.33
2018-03-25T10:51:41.262Z,8.33
2018-03-25T10:54:09.500Z,6.33
2018-03-25T10:56:37.907Z,7.23
2018-03-25T10:59:05.569Z,21.83
2018-03-25T11:01:33.149Z,21.67
2018-03-25T11:04:00.721Z,14.20
2018-03-25T11:06:28.303Z,11.27
2018-03-25T11:08:56.027Z,9.37
2018-03-25T11:11:23.620Z,16.07
2018-03-25T11:13:51.286Z,11.90
2018-03-25T11:16:18.849Z,9.03
2018-03-25T11:18:46.757Z,10.27
2018-03-25T11:21:14.293Z,12.67
2018-03-25T11:23:42.618Z,26.57
2018-03-25T11:26:10.209Z,21.00
2018-03-25T11:28:38.547Z,14.03
2018-03-25T11:31:06.142Z,10.20
2018-03-25T11:33:33.695Z,10.87
2018-03-25T11:36:01.260Z,10.70
2018-03-25T11:38:28.821Z,9.03
2018-03-25T11:40:56.362Z,6.83
2018-03-25T11:43:23.924Z,6.33
2018-03-25T11:45:51.493Z,7.17
2018-03-25T11:48:19.581Z,19.83
2018-03-25T11:50:47.173Z,11.73
2018-03-25T11:53:14.778Z,8.10
2018-03-25T11:55:42.296Z,6.77
2018-03-25T11:58:09.853Z,8.07
2018-03-25T12:00:38.182Z,5.10
2018-03-25T12:03:05.759Z,9.37
2018-03-25T12:05:33.342Z,5.73
2018-03-25T12:08:01.756Z,5.50
2018-03-25T12:10:30.101Z,7.13
2018-03-25T12:12:57.692Z,8.67
2018-03-25T12:15:26.020Z,21.03
2018-03-25T12:17:53.598Z,7.73
2018-03-25T12:20:21.164Z,6.60
2018-03-25T12:22:48.779Z,6.03
2018-03-25T12:25:16.401Z,4.77
2018-03-25T12:27:44.087Z,4.33
2018-03-25T12:30:11.642Z,6.07
2018-03-25T12:32:39.226Z,8.73
2018-03-25T12:35:06.790Z,15.67
2018-03-25T12:37:34.407Z,11.47
2018-03-25T12:40:02.774Z,7.60
2018-03-25T12:42:31.096Z,10.67
2018-03-25T12:44:58.682Z,8.57
2018-03-25T12:47:26.272Z,13.33
2018-03-25T12:49:53.908Z,11.77
2018-03-25T12:52:21.527Z,10.97
2018-03-25T12:54:49.939Z,21.93
2018-03-25T12:57:17.518Z,18.80
2018-03-25T12:59:45.131Z,13.77
2018-03-25T13:02:12.738Z,11.67
2018-03-25T13:04:40.323Z,7.10
2018-03-25T13:07:08.664Z,14.43
2018-03-25T13:09:36.212Z,10.53
2018-03-25T13:12:03.932Z,7.67
2018-03-25T13:14:32.277Z,7.37
2018-03-25T13:16:59.906Z,7.80
2018-03-25T13:19:28.239Z,10.90
2018-03-25T13:21:55.807Z,14.87
2018-03-25T13:24:23.416Z,15.10
2018-03-25T13:26:51.775Z,15.70
2018-03-25T13:29:19.513Z,15.47
2018-03-25T13:31:47.036Z,11.47
2018-03-25T13:34:15.367Z,16.87
2018-03-25T13:36:42.928Z,11.17
2018-03-25T13:39:10.653Z,10.80
2018-03-25T13:41:38.202Z,29.83
2018-03-25T13:44:05.783Z,21.57
2018-03-25T13:46:33.375Z,19.07
2018-03-25T13:49:01.078Z,17.67
2018-03-25T13:51:29.430Z,14.23
2018-03-25T13:53:57.151Z,22.27
2018-03-25T13:56:24.659Z,17.60
2018-03-25T13:58:52.230Z,12.37
2018-03-25T14:01:20.562Z,14.80
2018-03-25T14:03:48.871Z,14.73
2018-03-25T14:06:16.507Z,11.23
2018-03-25T14:08:44.879Z,7.67
2018-03-25T14:11:13.215Z,6.73
2018-03-25T14:13:40.832Z,5.47
2018-03-25T14:18:43.180Z,14.27
2018-03-25T14:21:10.717Z,11.30
2018-03-25T14:23:38.301Z,12.80
2018-03-25T14:26:05.916Z,14.13
2018-03-25T14:28:33.493Z,15.70
2018-03-25T14:31:01.077Z,12.60
2018-03-25T14:33:28.663Z,24.20
2018-03-25T14:35:56.244Z,21.93
2018-03-25T14:38:24.592Z,18.80
2018-03-25T14:40:53.012Z,19.87
2018-03-25T14:43:20.555Z,18.27
2018-03-25T14:45:48.149Z,16.83
2018-03-25T14:48:16.563Z,13.37
2018-03-25T14:50:44.166Z,9.47
2018-03-25T14:53:11.703Z,15.17
2018-03-25T14:55:39.281Z,14.27
2018-03-25T14:58:06.906Z,11.47
2018-03-25T15:00:34.604Z,9.67
2018-03-25T15:03:03.101Z,18.30
2018-03-25T15:05:30.772Z,10.30
2018-03-25T15:07:58.390Z,13.13
2018-03-25T15:10:25.941Z,9.90
2018-03-25T15:12:54.389Z,13.60
2018-03-25T15:15:21.950Z,20.30
2018-03-25T15:17:49.559Z,19.23
2018-03-25T15:20:18.016Z,15.00
2018-03-25T15:22:45.642Z,12.03
2018-03-25T15:25:13.966Z,8.77
2018-03-25T15:27:41.529Z,10.20
2018-03-25T15:30:09.187Z,21.20
2018-03-25T15:32:36.987Z,15.13
2018-03-25T15:35:04.560Z,9.60
2018-03-25T15:37:32.148Z,9.00
2018-03-25T15:39:59.836Z,20.07
2018-03-25T15:42:27.390Z,13.23
2018-03-25T15:44:54.965Z,13.20
2018-03-25T15:47:22.546Z,10.93
2018-03-25T15:49:50.221Z,17.57
2018-03-25T15:52:17.886Z,20.60
2018-03-25T15:54:45.491Z,18.63
2018-03-25T15:57:13.108Z,20.10
2018-03-25T15:59:40.696Z,24.83
2018-03-25T16:02:08.390Z,25.23
2018-03-25T16:04:36.836Z,23.50
2018-03-25T16:07:04.458Z,19.53
2018-03-25T16:09:32.044Z,13.50
2018-03-25T16:11:59.639Z,10.70
2018-03-25T16:14:27.183Z,11.87
2018-03-25T16:16:55.534Z,25.70
2018-03-25T16:19:23.103Z,18.17
2018-03-25T16:21:51.527Z,22.03
2018-03-25T16:24:19.120Z,12.17
2018-03-25T16:26:46.701Z,12.93
2018-03-25T16:29:15.102Z,11.17
2018-03-25T16:31:42.696Z,9.97
2018-03-25T16:34:10.321Z,8.97
2018-03-25T16:36:37.991Z,13.07
2018-03-25T16:39:05.564Z,10.93
2018-03-25T16:41:33.890Z,10.07
2018-03-25T16:44:01.504Z,12.57
2018-03-25T16:46:29.059Z,8.40
2018-03-25T16:48:56.603Z,7.93
2018-03-25T16:51:24.949Z,11.17
2018-03-25T16:53:52.541Z,17.23
2018-03-25T16:56:20.916Z,15.10
2018-03-25T16:58:48.597Z,18.60
2018-03-25T17:01:16.966Z,21.67
2018-03-25T17:03:45.446Z,11.77
2018-03-25T17:06:14.174Z,15.83
2018-03-25T17:08:41.844Z,11.90
2018-03-25T17:11:09.413Z,12.50
2018-03-25T17:13:36.986Z,9.90
2018-03-25T17:16:04.578Z,32.37
2018-03-25T17:18:32.370Z,21.50
2018-03-25T17:21:00.965Z,20.03
2018-03-25T17:23:29.457Z,13.77
2018-03-25T17:25:57.057Z,11.37
2018-03-25T17:28:26.597Z,16.10
2018-03-25T17:30:54.941Z,46.83
2018-03-25T17:33:22.529Z,27.83
2018-03-25T17:35:50.127Z,29.60
2018-03-25T17:38:18.233Z,20.80
2018-03-25T17:40:45.882Z,23.60
2018-03-25T17:43:13.471Z,21.87
2018-03-25T17:45:41.074Z,25.10
2018-03-25T17:48:08.727Z,15.50
2018-03-25T17:50:37.118Z,17.43
2018-03-25T17:53:05.448Z,12.93
2018-03-25T17:55:33.111Z,14.63
2018-03-25T17:58:02.071Z,21.07
2018-03-25T18:00:29.645Z,15.93
2018-03-25T18:02:58.384Z,14.20
2018-03-25T18:05:26.045Z,9.70
2018-03-25T18:07:53.636Z,7.93
2018-03-25T18:10:22.053Z,10.27
2018-03-25T18:12:49.591Z,7.77
2018-03-25T18:15:17.136Z,5.20
2018-03-25T18:17:45.453Z,7.50
2018-03-25T18:20:13.047Z,8.53
2018-03-25T18:22:40.675Z,7.50
2018-03-25T18:25:08.275Z,8.10
2018-03-25T18:27:35.916Z,8.20
2018-03-25T18:30:04.292Z,6.10
2018-03-25T18:32:32.624Z,5.03
2018-03-25T18:35:00.175Z,7.60
2018-03-25T18:37:27.758Z,5.70
2018-03-25T18:39:56.203Z,5.47
2018-03-25T18:42:23.781Z,7.13
2018-03-25T18:44:51.335Z,7.43
2018-03-25T18:47:18.881Z,6.30
2018-03-25T18:49:46.502Z,5.40
2018-03-25T18:52:14.109Z,6.03
2018-03-25T18:54:41.686Z,8.47
2018-03-25T18:57:10.054Z,6.73
2018-03-25T18:59:37.642Z,8.23
2018-03-25T19:02:05.243Z,12.50
2018-03-25T19:04:33.592Z,7.77
2018-03-25T19:07:01.148Z,9.20
2018-03-25T19:09:28.728Z,7.80
2018-03-25T19:11:56.293Z,9.27
2018-03-25T19:14:23.852Z,8.13
2018-03-25T19:16:51.456Z,6.83
2018-03-25T19:19:19.777Z,8.70
2018-03-25T19:21:47.436Z,7.93
2018-03-25T19:24:15.038Z,12.13
2018-03-25T19:26:42.632Z,7.27
2018-03-25T19:29:10.190Z,7.53
2018-03-25T19:31:37.761Z,8.20
2018-03-25T19:34:05.317Z,10.40
2018-03-25T19:36:32.942Z,9.47
2018-03-25T19:39:00.532Z,12.17
2018-03-25T19:41:28.947Z,9.90
2018-03-25T19:43:56.557Z,7.33
2018-03-25T19:46:24.158Z,10.87
2018-03-25T19:48:51.763Z,9.37
2018-03-25T19:51:20.096Z,8.87
2018-03-25T19:53:47.718Z,11.27
2018-03-25T19:56:16.130Z,7.73
2018-03-25T19:58:44.511Z,7.27
2018-03-25T20:01:12.171Z,7.83
2018-03-25T20:03:39.796Z,12.80
2018-03-25T20:06:08.178Z,9.07
2018-03-25T20:08:36.764Z,9.37
2018-03-25T20:11:05.120Z,9.27
2018-03-25T20:13:32.719Z,7.67
2018-03-25T20:16:00.301Z,10.23
2018-03-25T20:18:28.132Z,8.07
2018-03-25T20:20:55.774Z,9.77
2018-03-25T20:23:23.337Z,7.97
2018-03-25T20:25:51.064Z,8.23
2018-03-25T20:28:18.706Z,8.90
2018-03-25T20:30:46.282Z,9.47
2018-03-25T20:33:13.896Z,8.47
2018-03-25T20:35:41.491Z,10.13
2018-03-25T20:38:09.111Z,7.43
2018-03-25T20:40:37.536Z,7.67
2018-03-25T20:43:05.103Z,11.13
2018-03-25T20:45:32.679Z,7.87
2018-03-25T20:48:00.291Z,9.50
2018-03-25T20:50:27.847Z,8.50
2018-03-25T20:52:56.204Z,11.10
2018-03-25T20:55:24.555Z,12.17
2018-03-25T20:57:52.882Z,11.93
2018-03-25T21:00:21.392Z,12.53
2018-03-25T21:02:48.986Z,9.73
2018-03-25T21:05:16.593Z,13.40
2018-03-25T21:07:44.172Z,10.33
2018-03-25T21:10:11.752Z,7.40
2018-03-25T21:12:39.342Z,9.37
2018-03-25T21:15:07.664Z,9.63
2018-03-25T21:17:35.250Z,8.97
2018-03-25T21:20:03.623Z,9.37
2018-03-25T21:22:31.951Z,9.00
2018-03-25T21:24:59.550Z,7.87
2018-03-25T21:27:27.157Z,8.27
2018-03-25T21:29:54.752Z,8.23
2018-03-25T21:32:22.378Z,9.47
2018-03-25T21:34:50.072Z,8.40
2018-03-25T21:37:17.669Z,7.30
2018-03-25T21:39:45.234Z,6.80
2018-03-25T21:42:12.866Z,11.27
2018-03-25T21:44:40.472Z,9.60
2018-03-25T21:47:08.908Z,11.63
2018-03-25T21:49:36.596Z,7.07
2018-03-25T21:52:04.742Z,6.87
2018-03-25T21:54:33.373Z,10.83
2018-03-25T21:57:00.952Z,11.37
2018-03-25T21:59:28.613Z,11.43
2018-03-25T22:01:56.171Z,9.67
2018-03-25T22:04:23.774Z,11.70
2018-03-25T22:06:51.396Z,9.80
2018-03-25T22:09:18.947Z,9.03
2018-03-25T22:11:46.532Z,10.80
2018-03-25T22:14:14.120Z,11.87
2018-03-25T22:16:41.755Z,9.77
2018-03-25T22:19:09.398Z,13.13
2018-03-25T22:21:36.976Z,10.33
2018-03-25T22:24:04.610Z,8.90
2018-03-25T22:26:32.303Z,10.03
2018-03-25T22:28:59.861Z,11.60
2018-03-25T22:31:27.520Z,8.97
2018-03-25T22:33:55.107Z,9.90
2018-03-25T22:36:22.745Z,12.03
2018-03-25T22:38:50.352Z,9.43
2018-03-25T22:41:17.923Z,15.43
2018-03-25T22:43:45.499Z,10.40
2018-03-25T22:46:13.122Z,10.57
2018-03-25T22:48:42.105Z,11.57
2018-03-25T22:51:09.726Z,11.53
2018-03-25T22:53:37.296Z,9.10
2018-03-25T22:56:04.861Z,11.57
2018-03-25T22:58:32.437Z,11.67
2018-03-25T23:01:00.048Z,16.20
2018-03-25T23:03:27.711Z,11.83
2018-03-25T23:05:55.267Z,10.43
2018-03-25T23:08:22.924Z,9.63
2018-03-25T23:10:50.564Z,12.03
2018-03-25T23:13:18.225Z,12.27
2018-03-25T23:15:45.827Z,11.37
2018-03-25T23:18:13.366Z,10.33
2018-03-25T23:20:40.930Z,8.77
2018-03-25T23:23:08.523Z,11.47
2018-03-25T23:25:36.150Z,10.40
2018-03-25T23:28:03.769Z,10.53
2018-03-25T23:30:31.347Z,11.23
2018-03-25T23:32:58.925Z,11.90
2018-03-25T23:35:26.617Z,11.40
2018-03-25T23:37:54.213Z,11.07
2018-03-25T23:40:21.830Z,10.97
2018-03-25T23:42:50.184Z,12.57
2018-03-25T23:45:17.842Z,10.27
2018-03-25T23:47:45.417Z,9.63
2018-03-25T23:50:13.775Z,9.50
2018-03-25T23:52:41.412Z,13.17
2018-03-25T23:55:08.957Z,10.53
2018-03-25T23:57:36.498Z,9.67
